sensor_id;sensor_type;location;lat;lon;timestamp;P1;durP1;ratioP1;P2;durP2;ratioP2
5153;SDS011;2595;53.584;10.084;2023-02-15T00:01:17;56.80;;;31.47;;
5153;SDS011;2595;53.584;10.084;2023-02-15T00:03:42;66.40;;;31.00;;
5153;SDS011;2595;53.584;10.084;2023-02-15T00:06:08;57.27;;;30.63;;
5153;SDS011;2595;53.584;10.084;2023-02-15T00:08:34;58.73;;;30.23;;
5153;SDS011;2595;53.584;10.084;2023-02-15T00:11:12;60.67;;;28.90;;
5153;SDS011;2595;53.584;10.084;2023-02-15T00:13:39;50.30;;;27.87;;
5153;SDS011;2595;53.584;10.084;2023-02-15T00:16:11;63.33;;;32.53;;
5153;SDS011;2595;53.584;10.084;2023-02-15T00:18:40;59.70;;;31.90;;
5153;SDS011;2595;53.584;10.084;2023-02-15T00:21:07;60.40;;;31.30;;
5153;SDS011;2595;53.584;10.084;2023-02-15T00:23:34;54.43;;;29.43;;
5153;SDS011;2595;53.584;10.084;2023-02-15T00:26:07;56.20;;;28.80;;
5153;SDS011;2595;53.584;10.084;2023-02-15T00:28:35;62.90;;;30.20;;
5153;SDS011;2595;53.584;10.084;2023-02-15T00:31:07;62.03;;;32.07;;
5153;SDS011;2595;53.584;10.084;2023-02-15T00:33:37;55.33;;;28.57;;
5153;SDS011;2595;53.584;10.084;2023-02-15T00:36:03;61.60;;;31.63;;
5153;SDS011;2595;53.584;10.084;2023-02-15T00:38:34;67.10;;;30.80;;
5153;SDS011;2595;53.584;10.084;2023-02-15T00:41:01;70.50;;;32.63;;
5153;SDS011;2595;53.584;10.084;2023-02-15T00:43:28;62.70;;;31.43;;
5153;SDS011;2595;53.584;10.084;2023-02-15T00:45:55;61.27;;;33.60;;
5153;SDS011;2595;53.584;10.084;2023-02-15T00:48:21;68.10;;;30.60;;
5153;SDS011;2595;53.584;10.084;2023-02-15T00:50:51;55.07;;;30.70;;
5153;SDS011;2595;53.584;10.084;2023-02-15T00:53:18;62.73;;;30.00;;
5153;SDS011;2595;53.584;10.084;2023-02-15T00:55:45;63.20;;;30.13;;
5153;SDS011;2595;53.584;10.084;2023-02-15T00:58:11;60.83;;;29.50;;
5153;SDS011;2595;53.584;10.084;2023-02-15T01:00:37;56.40;;;30.53;;
5153;SDS011;2595;53.584;10.084;2023-02-15T01:03:04;63.80;;;31.20;;
5153;SDS011;2595;53.584;10.084;2023-02-15T01:05:30;58.00;;;29.37;;
5153;SDS011;2595;53.584;10.084;2023-02-15T01:07:57;65.30;;;28.03;;
5153;SDS011;2595;53.584;10.084;2023-02-15T01:10:23;60.20;;;28.60;;
5153;SDS011;2595;53.584;10.084;2023-02-15T01:12:49;61.90;;;30.03;;
5153;SDS011;2595;53.584;10.084;2023-02-15T01:15:16;55.43;;;28.77;;
5153;SDS011;2595;53.584;10.084;2023-02-15T01:17:42;60.27;;;29.90;;
5153;SDS011;2595;53.584;10.084;2023-02-15T01:20:13;55.93;;;29.07;;
5153;SDS011;2595;53.584;10.084;2023-02-15T01:22:40;49.70;;;29.13;;
5153;SDS011;2595;53.584;10.084;2023-02-15T01:25:05;55.83;;;28.97;;
5153;SDS011;2595;53.584;10.084;2023-02-15T01:27:31;64.43;;;31.77;;
5153;SDS011;2595;53.584;10.084;2023-02-15T01:29:57;59.17;;;30.53;;
5153;SDS011;2595;53.584;10.084;2023-02-15T01:32:22;53.27;;;28.90;;
5153;SDS011;2595;53.584;10.084;2023-02-15T01:34:48;54.60;;;28.90;;
5153;SDS011;2595;53.584;10.084;2023-02-15T01:37:14;59.70;;;29.77;;
5153;SDS011;2595;53.584;10.084;2023-02-15T01:39:39;53.80;;;26.83;;
5153;SDS011;2595;53.584;10.084;2023-02-15T01:42:05;56.73;;;29.30;;
5153;SDS011;2595;53.584;10.084;2023-02-15T01:44:46;75.57;;;29.07;;
5153;SDS011;2595;53.584;10.084;2023-02-15T01:47:16;59.13;;;30.20;;
5153;SDS011;2595;53.584;10.084;2023-02-15T01:50:14;53.60;;;27.83;;
5153;SDS011;2595;53.584;10.084;2023-02-15T01:52:48;67.40;;;30.00;;
5153;SDS011;2595;53.584;10.084;2023-02-15T01:55:15;55.30;;;29.90;;
5153;SDS011;2595;53.584;10.084;2023-02-15T01:57:41;53.97;;;29.20;;
5153;SDS011;2595;53.584;10.084;2023-02-15T02:00:08;52.70;;;28.40;;
5153;SDS011;2595;53.584;10.084;2023-02-15T02:02:34;56.20;;;28.03;;
5153;SDS011;2595;53.584;10.084;2023-02-15T02:05:02;53.83;;;30.07;;
5153;SDS011;2595;53.584;10.084;2023-02-15T02:07:33;54.60;;;27.83;;
5153;SDS011;2595;53.584;10.084;2023-02-15T02:10:03;57.50;;;29.33;;
5153;SDS011;2595;53.584;10.084;2023-02-15T02:12:29;52.13;;;26.60;;
5153;SDS011;2595;53.584;10.084;2023-02-15T02:14:56;69.70;;;29.60;;
5153;SDS011;2595;53.584;10.084;2023-02-15T02:25:42;55.03;;;26.97;;
5153;SDS011;2595;53.584;10.084;2023-02-15T02:34:22;69.90;;;30.03;;
5153;SDS011;2595;53.584;10.084;2023-02-15T02:37:08;52.10;;;26.33;;
5153;SDS011;2595;53.584;10.084;2023-02-15T02:42:36;50.70;;;25.30;;
5153;SDS011;2595;53.584;10.084;2023-02-15T02:45:03;46.73;;;26.67;;
5153;SDS011;2595;53.584;10.084;2023-02-15T02:47:45;64.90;;;27.20;;
5153;SDS011;2595;53.584;10.084;2023-02-15T02:50:22;46.10;;;26.80;;
5153;SDS011;2595;53.584;10.084;2023-02-15T02:52:53;50.70;;;27.10;;
5153;SDS011;2595;53.584;10.084;2023-02-15T03:00:34;46.73;;;27.90;;
5153;SDS011;2595;53.584;10.084;2023-02-15T03:03:08;49.57;;;26.67;;
5153;SDS011;2595;53.584;10.084;2023-02-15T03:05:38;51.93;;;26.80;;
5153;SDS011;2595;53.584;10.084;2023-02-15T03:08:06;48.00;;;26.00;;
5153;SDS011;2595;53.584;10.084;2023-02-15T03:10:35;51.70;;;27.17;;
5153;SDS011;2595;53.584;10.084;2023-02-15T03:13:02;51.53;;;27.43;;
5153;SDS011;2595;53.584;10.084;2023-02-15T03:15:32;47.97;;;26.60;;
5153;SDS011;2595;53.584;10.084;2023-02-15T03:18:22;49.10;;;25.70;;
5153;SDS011;2595;53.584;10.084;2023-02-15T03:20:51;43.27;;;24.60;;
5153;SDS011;2595;53.584;10.084;2023-02-15T03:23:20;47.97;;;25.87;;
5153;SDS011;2595;53.584;10.084;2023-02-15T03:25:52;51.77;;;26.50;;
5153;SDS011;2595;53.584;10.084;2023-02-15T03:28:23;46.73;;;25.50;;
5153;SDS011;2595;53.584;10.084;2023-02-15T03:30:54;46.77;;;26.37;;
5153;SDS011;2595;53.584;10.084;2023-02-15T03:33:22;44.93;;;26.00;;
5153;SDS011;2595;53.584;10.084;2023-02-15T03:35:58;48.43;;;24.80;;
5153;SDS011;2595;53.584;10.084;2023-02-15T03:38:34;45.33;;;28.10;;
5153;SDS011;2595;53.584;10.084;2023-02-15T03:41:06;51.17;;;26.57;;
5153;SDS011;2595;53.584;10.084;2023-02-15T03:43:52;51.07;;;27.50;;
5153;SDS011;2595;53.584;10.084;2023-02-15T03:46:28;48.47;;;25.60;;
5153;SDS011;2595;53.584;10.084;2023-02-15T03:49:08;50.67;;;25.33;;
5153;SDS011;2595;53.584;10.084;2023-02-15T03:51:40;46.53;;;25.23;;
5153;SDS011;2595;53.584;10.084;2023-02-15T03:54:16;57.27;;;26.03;;
5153;SDS011;2595;53.584;10.084;2023-02-15T03:57:11;44.60;;;24.93;;
5153;SDS011;2595;53.584;10.084;2023-02-15T04:03:15;55.23;;;25.27;;
5153;SDS011;2595;53.584;10.084;2023-02-15T04:06:03;48.23;;;26.40;;
5153;SDS011;2595;53.584;10.084;2023-02-15T04:08:29;49.90;;;25.70;;
5153;SDS011;2595;53.584;10.084;2023-02-15T04:11:14;58.27;;;28.03;;
5153;SDS011;2595;53.584;10.084;2023-02-15T04:13:39;67.33;;;27.83;;
5153;SDS011;2595;53.584;10.084;2023-02-15T04:16:05;50.10;;;27.63;;
5153;SDS011;2595;53.584;10.084;2023-02-15T04:18:32;60.47;;;27.43;;
5153;SDS011;2595;53.584;10.084;2023-02-15T04:21:21;52.40;;;24.80;;
5153;SDS011;2595;53.584;10.084;2023-02-15T04:24:06;52.23;;;26.27;;
5153;SDS011;2595;53.584;10.084;2023-02-15T04:26:51;45.23;;;23.70;;
5153;SDS011;2595;53.584;10.084;2023-02-15T04:29:18;61.90;;;28.03;;
5153;SDS011;2595;53.584;10.084;2023-02-15T04:31:44;52.37;;;27.53;;
5153;SDS011;2595;53.584;10.084;2023-02-15T04:34:10;49.33;;;26.30;;
5153;SDS011;2595;53.584;10.084;2023-02-15T04:36:39;49.00;;;25.57;;
5153;SDS011;2595;53.584;10.084;2023-02-15T04:39:05;46.57;;;26.00;;
5153;SDS011;2595;53.584;10.084;2023-02-15T04:41:32;47.83;;;25.00;;
5153;SDS011;2595;53.584;10.084;2023-02-15T04:43:58;50.90;;;25.57;;
5153;SDS011;2595;53.584;10.084;2023-02-15T04:46:25;49.63;;;26.50;;
5153;SDS011;2595;53.584;10.084;2023-02-15T04:48:51;51.80;;;25.83;;
5153;SDS011;2595;53.584;10.084;2023-02-15T04:51:16;47.23;;;24.57;;
5153;SDS011;2595;53.584;10.084;2023-02-15T04:53:42;51.10;;;25.20;;
5153;SDS011;2595;53.584;10.084;2023-02-15T04:56:07;53.23;;;26.30;;
5153;SDS011;2595;53.584;10.084;2023-02-15T04:58:33;46.70;;;25.70;;
5153;SDS011;2595;53.584;10.084;2023-02-15T05:01:00;50.80;;;26.17;;
5153;SDS011;2595;53.584;10.084;2023-02-15T05:03:26;44.00;;;25.40;;
5153;SDS011;2595;53.584;10.084;2023-02-15T05:05:51;49.97;;;26.10;;
5153;SDS011;2595;53.584;10.084;2023-02-15T05:08:17;52.63;;;23.70;;
5153;SDS011;2595;53.584;10.084;2023-02-15T05:10:43;37.90;;;21.63;;
5153;SDS011;2595;53.584;10.084;2023-02-15T05:13:08;43.47;;;22.60;;
5153;SDS011;2595;53.584;10.084;2023-02-15T05:15:34;39.67;;;20.63;;
5153;SDS011;2595;53.584;10.084;2023-02-15T05:17:59;40.50;;;23.47;;
5153;SDS011;2595;53.584;10.084;2023-02-15T05:20:26;36.30;;;21.90;;
5153;SDS011;2595;53.584;10.084;2023-02-15T05:22:55;41.10;;;22.50;;
5153;SDS011;2595;53.584;10.084;2023-02-15T05:25:21;39.03;;;23.07;;
5153;SDS011;2595;53.584;10.084;2023-02-15T05:28:05;35.57;;;22.27;;
5153;SDS011;2595;53.584;10.084;2023-02-15T05:30:50;40.43;;;22.90;;
5153;SDS011;2595;53.584;10.084;2023-02-15T05:33:24;34.23;;;20.30;;
5153;SDS011;2595;53.584;10.084;2023-02-15T05:35:50;38.20;;;22.17;;
5153;SDS011;2595;53.584;10.084;2023-02-15T05:38:16;39.17;;;22.30;;
5153;SDS011;2595;53.584;10.084;2023-02-15T05:40:41;35.70;;;21.03;;
5153;SDS011;2595;53.584;10.084;2023-02-15T05:43:07;34.23;;;21.00;;
5153;SDS011;2595;53.584;10.084;2023-02-15T05:45:32;37.97;;;21.47;;
5153;SDS011;2595;53.584;10.084;2023-02-15T05:47:58;33.37;;;20.90;;
5153;SDS011;2595;53.584;10.084;2023-02-15T05:50:24;40.83;;;22.47;;
5153;SDS011;2595;53.584;10.084;2023-02-15T05:52:50;55.00;;;22.20;;
5153;SDS011;2595;53.584;10.084;2023-02-15T05:55:16;36.60;;;19.80;;
5153;SDS011;2595;53.584;10.084;2023-02-15T05:57:42;34.93;;;20.97;;
5153;SDS011;2595;53.584;10.084;2023-02-15T06:00:07;32.53;;;19.20;;
5153;SDS011;2595;53.584;10.084;2023-02-15T06:02:35;33.23;;;19.00;;
5153;SDS011;2595;53.584;10.084;2023-02-15T06:05:02;33.30;;;19.93;;
5153;SDS011;2595;53.584;10.084;2023-02-15T06:07:28;29.37;;;18.77;;
5153;SDS011;2595;53.584;10.084;2023-02-15T06:09:54;29.90;;;19.20;;
5153;SDS011;2595;53.584;10.084;2023-02-15T06:12:19;29.77;;;19.47;;
5153;SDS011;2595;53.584;10.084;2023-02-15T06:14:45;30.57;;;19.10;;
5153;SDS011;2595;53.584;10.084;2023-02-15T06:17:10;26.90;;;18.70;;
5153;SDS011;2595;53.584;10.084;2023-02-15T06:19:36;27.70;;;18.47;;
5153;SDS011;2595;53.584;10.084;2023-02-15T06:22:01;31.53;;;19.20;;
5153;SDS011;2595;53.584;10.084;2023-02-15T06:24:27;37.10;;;20.80;;
5153;SDS011;2595;53.584;10.084;2023-02-15T06:26:53;39.50;;;20.87;;
5153;SDS011;2595;53.584;10.084;2023-02-15T06:29:18;35.90;;;19.60;;
5153;SDS011;2595;53.584;10.084;2023-02-15T06:31:44;33.60;;;20.00;;
5153;SDS011;2595;53.584;10.084;2023-02-15T06:34:10;31.80;;;20.43;;
5153;SDS011;2595;53.584;10.084;2023-02-15T06:36:35;33.57;;;18.53;;
5153;SDS011;2595;53.584;10.084;2023-02-15T06:39:01;41.40;;;21.70;;
5153;SDS011;2595;53.584;10.084;2023-02-15T06:41:28;31.57;;;20.40;;
5153;SDS011;2595;53.584;10.084;2023-02-15T06:43:53;38.93;;;21.17;;
5153;SDS011;2595;53.584;10.084;2023-02-15T06:46:19;33.73;;;20.80;;
5153;SDS011;2595;53.584;10.084;2023-02-15T06:48:44;40.27;;;23.40;;
5153;SDS011;2595;53.584;10.084;2023-02-15T06:51:10;38.20;;;22.10;;
5153;SDS011;2595;53.584;10.084;2023-02-15T06:53:36;37.97;;;19.83;;
5153;SDS011;2595;53.584;10.084;2023-02-15T06:56:06;50.93;;;23.13;;
5153;SDS011;2595;53.584;10.084;2023-02-15T06:58:34;40.93;;;22.70;;
5153;SDS011;2595;53.584;10.084;2023-02-15T07:01:06;36.20;;;21.30;;
5153;SDS011;2595;53.584;10.084;2023-02-15T07:03:33;30.90;;;19.30;;
5153;SDS011;2595;53.584;10.084;2023-02-15T07:06:00;38.83;;;20.97;;
5153;SDS011;2595;53.584;10.084;2023-02-15T07:08:28;32.80;;;20.17;;
5153;SDS011;2595;53.584;10.084;2023-02-15T07:10:55;32.63;;;21.00;;
5153;SDS011;2595;53.584;10.084;2023-02-15T07:13:44;33.30;;;19.53;;
5153;SDS011;2595;53.584;10.084;2023-02-15T07:16:10;34.93;;;20.03;;
5153;SDS011;2595;53.584;10.084;2023-02-15T07:18:36;28.40;;;19.30;;
5153;SDS011;2595;53.584;10.084;2023-02-15T07:21:01;43.20;;;21.27;;
5153;SDS011;2595;53.584;10.084;2023-02-15T07:23:27;34.43;;;19.97;;
5153;SDS011;2595;53.584;10.084;2023-02-15T07:25:57;46.57;;;22.10;;
5153;SDS011;2595;53.584;10.084;2023-02-15T07:28:23;36.17;;;20.53;;
5153;SDS011;2595;53.584;10.084;2023-02-15T07:30:49;35.47;;;20.30;;
5153;SDS011;2595;53.584;10.084;2023-02-15T07:33:15;45.83;;;22.20;;
5153;SDS011;2595;53.584;10.084;2023-02-15T07:35:56;44.93;;;22.47;;
5153;SDS011;2595;53.584;10.084;2023-02-15T07:38:23;32.73;;;20.90;;
5153;SDS011;2595;53.584;10.084;2023-02-15T07:40:49;42.30;;;21.50;;
5153;SDS011;2595;53.584;10.084;2023-02-15T07:43:15;38.03;;;20.67;;
5153;SDS011;2595;53.584;10.084;2023-02-15T07:45:41;37.13;;;20.83;;
5153;SDS011;2595;53.584;10.084;2023-02-15T07:48:06;35.77;;;20.40;;
5153;SDS011;2595;53.584;10.084;2023-02-15T07:50:32;46.57;;;22.83;;
5153;SDS011;2595;53.584;10.084;2023-02-15T07:53:00;36.47;;;21.97;;
5153;SDS011;2595;53.584;10.084;2023-02-15T07:55:26;35.57;;;20.43;;
5153;SDS011;2595;53.584;10.084;2023-02-15T07:57:52;35.10;;;20.70;;
5153;SDS011;2595;53.584;10.084;2023-02-15T08:00:19;34.17;;;20.97;;
5153;SDS011;2595;53.584;10.084;2023-02-15T08:02:50;34.93;;;22.70;;
5153;SDS011;2595;53.584;10.084;2023-02-15T08:05:36;39.03;;;22.03;;
5153;SDS011;2595;53.584;10.084;2023-02-15T08:08:02;30.27;;;19.60;;
5153;SDS011;2595;53.584;10.084;2023-02-15T08:10:28;35.50;;;20.57;;
5153;SDS011;2595;53.584;10.084;2023-02-15T08:13:12;38.80;;;19.90;;
5153;SDS011;2595;53.584;10.084;2023-02-15T08:15:38;35.33;;;20.30;;
5153;SDS011;2595;53.584;10.084;2023-02-15T08:18:03;35.33;;;17.77;;
5153;SDS011;2595;53.584;10.084;2023-02-15T08:20:29;36.90;;;20.73;;
5153;SDS011;2595;53.584;10.084;2023-02-15T08:22:55;35.57;;;21.20;;
5153;SDS011;2595;53.584;10.084;2023-02-15T08:25:20;42.77;;;22.40;;
5153;SDS011;2595;53.584;10.084;2023-02-15T08:27:46;36.93;;;20.40;;
5153;SDS011;2595;53.584;10.084;2023-02-15T08:30:12;39.70;;;20.80;;
5153;SDS011;2595;53.584;10.084;2023-02-15T08:32:39;45.73;;;21.90;;
5153;SDS011;2595;53.584;10.084;2023-02-15T08:41:46;37.00;;;21.10;;
5153;SDS011;2595;53.584;10.084;2023-02-15T08:44:14;38.60;;;23.50;;
5153;SDS011;2595;53.584;10.084;2023-02-15T08:46:42;44.77;;;25.17;;
5153;SDS011;2595;53.584;10.084;2023-02-15T08:49:09;37.03;;;22.00;;
5153;SDS011;2595;53.584;10.084;2023-02-15T08:51:38;37.97;;;21.53;;
5153;SDS011;2595;53.584;10.084;2023-02-15T08:54:05;40.47;;;22.50;;
5153;SDS011;2595;53.584;10.084;2023-02-15T08:56:33;33.23;;;20.20;;
5153;SDS011;2595;53.584;10.084;2023-02-15T08:59:03;29.40;;;19.67;;
5153;SDS011;2595;53.584;10.084;2023-02-15T09:01:31;33.03;;;19.80;;
5153;SDS011;2595;53.584;10.084;2023-02-15T09:03:58;33.77;;;20.13;;
5153;SDS011;2595;53.584;10.084;2023-02-15T09:06:26;35.40;;;19.63;;
5153;SDS011;2595;53.584;10.084;2023-02-15T09:08:52;31.70;;;19.13;;
5153;SDS011;2595;53.584;10.084;2023-02-15T09:11:19;33.50;;;19.07;;
5153;SDS011;2595;53.584;10.084;2023-02-15T09:14:10;32.10;;;19.67;;
5153;SDS011;2595;53.584;10.084;2023-02-15T09:16:38;33.97;;;20.33;;
5153;SDS011;2595;53.584;10.084;2023-02-15T09:19:04;32.17;;;18.97;;
5153;SDS011;2595;53.584;10.084;2023-02-15T09:21:31;43.67;;;20.70;;
5153;SDS011;2595;53.584;10.084;2023-02-15T09:24:01;32.57;;;20.50;;
5153;SDS011;2595;53.584;10.084;2023-02-15T09:26:29;37.03;;;19.80;;
5153;SDS011;2595;53.584;10.084;2023-02-15T09:28:57;43.30;;;21.47;;
5153;SDS011;2595;53.584;10.084;2023-02-15T09:31:26;34.53;;;19.30;;
5153;SDS011;2595;53.584;10.084;2023-02-15T09:33:54;33.33;;;19.10;;
5153;SDS011;2595;53.584;10.084;2023-02-15T09:36:25;34.60;;;19.83;;
5153;SDS011;2595;53.584;10.084;2023-02-15T10:07:05;45.07;;;23.17;;
5153;SDS011;2595;53.584;10.084;2023-02-15T10:12:27;49.93;;;23.90;;
5153;SDS011;2595;53.584;10.084;2023-02-15T10:15:31;45.30;;;24.97;;
5153;SDS011;2595;53.584;10.084;2023-02-15T10:20:59;48.00;;;25.57;;
5153;SDS011;2595;53.584;10.084;2023-02-15T10:23:37;48.67;;;25.00;;
5153;SDS011;2595;53.584;10.084;2023-02-15T10:28:59;53.13;;;24.70;;
5153;SDS011;2595;53.584;10.084;2023-02-15T10:31:26;38.20;;;22.53;;
5153;SDS011;2595;53.584;10.084;2023-02-15T10:34:20;43.67;;;24.40;;
5153;SDS011;2595;53.584;10.084;2023-02-15T10:48:23;38.13;;;22.80;;
5153;SDS011;2595;53.584;10.084;2023-02-15T10:54:49;48.60;;;25.13;;
5153;SDS011;2595;53.584;10.084;2023-02-15T11:03:12;47.73;;;24.00;;
5153;SDS011;2595;53.584;10.084;2023-02-15T11:06:07;43.13;;;26.17;;
5153;SDS011;2595;53.584;10.084;2023-02-15T11:09:01;47.17;;;27.27;;
5153;SDS011;2595;53.584;10.084;2023-02-15T11:11:34;49.20;;;28.03;;
5153;SDS011;2595;53.584;10.084;2023-02-15T11:14:10;55.40;;;25.90;;
5153;SDS011;2595;53.584;10.084;2023-02-15T11:17:05;41.43;;;23.37;;
5153;SDS011;2595;53.584;10.084;2023-02-15T11:22:48;41.10;;;24.90;;
5153;SDS011;2595;53.584;10.084;2023-02-15T11:25:18;43.77;;;25.90;;
5153;SDS011;2595;53.584;10.084;2023-02-15T11:27:56;45.43;;;27.43;;
5153;SDS011;2595;53.584;10.084;2023-02-15T11:30:23;51.13;;;27.37;;
5153;SDS011;2595;53.584;10.084;2023-02-15T11:32:57;51.20;;;29.40;;
5153;SDS011;2595;53.584;10.084;2023-02-15T11:35:31;50.77;;;29.23;;
5153;SDS011;2595;53.584;10.084;2023-02-15T11:40:49;58.40;;;31.50;;
5153;SDS011;2595;53.584;10.084;2023-02-15T11:43:33;55.73;;;32.47;;
5153;SDS011;2595;53.584;10.084;2023-02-15T11:46:21;71.20;;;35.53;;
5153;SDS011;2595;53.584;10.084;2023-02-15T11:48:46;69.40;;;34.50;;
5153;SDS011;2595;53.584;10.084;2023-02-15T11:51:13;69.03;;;35.10;;
5153;SDS011;2595;53.584;10.084;2023-02-15T11:53:42;61.33;;;32.17;;
5153;SDS011;2595;53.584;10.084;2023-02-15T11:56:16;59.73;;;31.80;;
5153;SDS011;2595;53.584;10.084;2023-02-15T11:58:54;63.33;;;33.60;;
5153;SDS011;2595;53.584;10.084;2023-02-15T12:01:38;54.97;;;31.10;;
5153;SDS011;2595;53.584;10.084;2023-02-15T12:11:42;49.97;;;31.13;;
5153;SDS011;2595;53.584;10.084;2023-02-15T12:14:08;51.67;;;31.43;;
5153;SDS011;2595;53.584;10.084;2023-02-15T12:16:54;55.43;;;32.17;;
5153;SDS011;2595;53.584;10.084;2023-02-15T12:19:24;48.23;;;29.53;;
5153;SDS011;2595;53.584;10.084;2023-02-15T12:22:03;56.63;;;30.87;;
5153;SDS011;2595;53.584;10.084;2023-02-15T12:24:31;57.90;;;32.53;;
5153;SDS011;2595;53.584;10.084;2023-02-15T12:29:53;58.17;;;32.33;;
5153;SDS011;2595;53.584;10.084;2023-02-15T12:32:35;61.83;;;35.23;;
5153;SDS011;2595;53.584;10.084;2023-02-15T12:35:21;58.77;;;35.10;;
5153;SDS011;2595;53.584;10.084;2023-02-15T12:37:53;62.17;;;34.27;;
5153;SDS011;2595;53.584;10.084;2023-02-15T12:40:22;60.23;;;33.50;;
5153;SDS011;2595;53.584;10.084;2023-02-15T12:42:53;58.70;;;33.23;;
5153;SDS011;2595;53.584;10.084;2023-02-15T12:45:20;65.70;;;34.00;;
5153;SDS011;2595;53.584;10.084;2023-02-15T12:50:39;56.67;;;31.97;;
5153;SDS011;2595;53.584;10.084;2023-02-15T12:56:04;55.53;;;32.87;;
5153;SDS011;2595;53.584;10.084;2023-02-15T13:03:55;56.97;;;32.40;;
5153;SDS011;2595;53.584;10.084;2023-02-15T13:06:34;60.77;;;35.07;;
5153;SDS011;2595;53.584;10.084;2023-02-15T13:09:33;61.73;;;36.47;;
5153;SDS011;2595;53.584;10.084;2023-02-15T13:12:10;56.40;;;33.90;;
5153;SDS011;2595;53.584;10.084;2023-02-15T13:15:03;54.20;;;32.30;;
5153;SDS011;2595;53.584;10.084;2023-02-15T13:17:48;63.53;;;32.80;;
5153;SDS011;2595;53.584;10.084;2023-02-15T13:20:16;50.50;;;32.23;;
5153;SDS011;2595;53.584;10.084;2023-02-15T13:22:46;56.37;;;32.33;;
5153;SDS011;2595;53.584;10.084;2023-02-15T13:25:22;57.40;;;33.20;;
5153;SDS011;2595;53.584;10.084;2023-02-15T13:27:57;57.10;;;32.57;;
5153;SDS011;2595;53.584;10.084;2023-02-15T13:30:31;48.00;;;30.83;;
5153;SDS011;2595;53.584;10.084;2023-02-15T13:33:10;51.73;;;31.20;;
5153;SDS011;2595;53.584;10.084;2023-02-15T13:36:12;51.10;;;29.77;;
5153;SDS011;2595;53.584;10.084;2023-02-15T13:39:27;42.33;;;27.20;;
5153;SDS011;2595;53.584;10.084;2023-02-15T13:42:20;43.50;;;27.27;;
5153;SDS011;2595;53.584;10.084;2023-02-15T13:45:03;46.33;;;29.30;;
5153;SDS011;2595;53.584;10.084;2023-02-15T13:47:41;49.27;;;28.13;;
5153;SDS011;2595;53.584;10.084;2023-02-15T13:50:29;44.90;;;26.60;;
5153;SDS011;2595;53.584;10.084;2023-02-15T13:53:42;38.50;;;27.63;;
5153;SDS011;2595;53.584;10.084;2023-02-15T13:58:35;33.00;;;22.47;;
5153;SDS011;2595;53.584;10.084;2023-02-15T14:15:06;36.63;;;21.23;;
5153;SDS011;2595;53.584;10.084;2023-02-15T14:20:05;27.40;;;20.53;;
5153;SDS011;2595;53.584;10.084;2023-02-15T14:22:43;28.60;;;21.53;;
5153;SDS011;2595;53.584;10.084;2023-02-15T14:25:17;24.97;;;20.10;;
5153;SDS011;2595;53.584;10.084;2023-02-15T14:28:02;25.57;;;19.73;;
5153;SDS011;2595;53.584;10.084;2023-02-15T14:30:30;26.90;;;19.80;;
5153;SDS011;2595;53.584;10.084;2023-02-15T14:33:05;31.80;;;21.10;;
5153;SDS011;2595;53.584;10.084;2023-02-15T14:35:32;25.73;;;19.90;;
5153;SDS011;2595;53.584;10.084;2023-02-15T14:38:17;25.47;;;18.60;;
5153;SDS011;2595;53.584;10.084;2023-02-15T14:41:02;25.53;;;20.57;;
5153;SDS011;2595;53.584;10.084;2023-02-15T14:49:09;27.93;;;21.43;;
5153;SDS011;2595;53.584;10.084;2023-02-15T14:56:46;28.43;;;21.87;;
5153;SDS011;2595;53.584;10.084;2023-02-15T15:02:14;29.37;;;22.50;;
5153;SDS011;2595;53.584;10.084;2023-02-15T15:05:00;25.90;;;20.40;;
5153;SDS011;2595;53.584;10.084;2023-02-15T15:07:35;34.40;;;22.27;;
5153;SDS011;2595;53.584;10.084;2023-02-15T15:12:46;27.17;;;20.87;;
5153;SDS011;2595;53.584;10.084;2023-02-15T15:25:51;26.40;;;20.03;;
5153;SDS011;2595;53.584;10.084;2023-02-15T15:31:02;28.07;;;21.00;;
5153;SDS011;2595;53.584;10.084;2023-02-15T15:41:41;36.90;;;24.37;;
5153;SDS011;2595;53.584;10.084;2023-02-15T15:49:56;34.23;;;21.33;;
5153;SDS011;2595;53.584;10.084;2023-02-15T15:52:23;33.60;;;23.20;;
5153;SDS011;2595;53.584;10.084;2023-02-15T15:54:52;40.27;;;24.53;;
5153;SDS011;2595;53.584;10.084;2023-02-15T15:57:28;32.53;;;22.90;;
5153;SDS011;2595;53.584;10.084;2023-02-15T15:59:58;36.50;;;22.50;;
5153;SDS011;2595;53.584;10.084;2023-02-15T16:02:26;28.67;;;22.33;;
5153;SDS011;2595;53.584;10.084;2023-02-15T16:04:52;32.73;;;21.30;;
5153;SDS011;2595;53.584;10.084;2023-02-15T16:10:44;30.20;;;22.00;;
5153;SDS011;2595;53.584;10.084;2023-02-15T16:12:52;28.10;;;20.07;;
5153;SDS011;2595;53.584;10.084;2023-02-15T16:15:23;31.43;;;21.77;;
5153;SDS011;2595;53.584;10.084;2023-02-15T16:17:57;29.10;;;20.97;;
5153;SDS011;2595;53.584;10.084;2023-02-15T16:20:31;31.60;;;21.53;;
5153;SDS011;2595;53.584;10.084;2023-02-15T16:23:08;24.27;;;20.17;;
5153;SDS011;2595;53.584;10.084;2023-02-15T16:25:51;28.80;;;21.37;;
5153;SDS011;2595;53.584;10.084;2023-02-15T16:28:22;30.97;;;21.17;;
5153;SDS011;2595;53.584;10.084;2023-02-15T16:30:54;28.20;;;21.40;;
5153;SDS011;2595;53.584;10.084;2023-02-15T16:33:36;24.60;;;18.60;;
5153;SDS011;2595;53.584;10.084;2023-02-15T16:36:03;47.17;;;27.57;;
5153;SDS011;2595;53.584;10.084;2023-02-15T16:41:13;39.17;;;24.23;;
5153;SDS011;2595;53.584;10.084;2023-02-15T16:43:46;41.43;;;27.03;;
5153;SDS011;2595;53.584;10.084;2023-02-15T16:46:18;30.67;;;24.30;;
5153;SDS011;2595;53.584;10.084;2023-02-15T16:48:49;33.97;;;22.63;;
5153;SDS011;2595;53.584;10.084;2023-02-15T16:51:30;32.03;;;22.87;;
5153;SDS011;2595;53.584;10.084;2023-02-15T16:54:00;27.13;;;20.40;;
5153;SDS011;2595;53.584;10.084;2023-02-15T16:56:31;28.57;;;20.17;;
5153;SDS011;2595;53.584;10.084;2023-02-15T16:58:57;31.67;;;21.60;;
5153;SDS011;2595;53.584;10.084;2023-02-15T17:01:25;39.83;;;21.40;;
5153;SDS011;2595;53.584;10.084;2023-02-15T17:04:10;26.90;;;20.30;;
5153;SDS011;2595;53.584;10.084;2023-02-15T17:06:56;30.60;;;23.00;;
5153;SDS011;2595;53.584;10.084;2023-02-15T17:09:24;28.97;;;20.43;;
5153;SDS011;2595;53.584;10.084;2023-02-15T17:11:50;29.00;;;21.47;;
5153;SDS011;2595;53.584;10.084;2023-02-15T17:14:19;34.07;;;23.50;;
5153;SDS011;2595;53.584;10.084;2023-02-15T17:16:58;30.10;;;21.40;;
5153;SDS011;2595;53.584;10.084;2023-02-15T17:19:27;32.20;;;24.30;;
5153;SDS011;2595;53.584;10.084;2023-02-15T17:22:02;23.13;;;20.67;;
5153;SDS011;2595;53.584;10.084;2023-02-15T17:24:38;29.00;;;21.23;;
5153;SDS011;2595;53.584;10.084;2023-02-15T17:27:23;27.27;;;21.67;;
5153;SDS011;2595;53.584;10.084;2023-02-15T17:29:55;27.80;;;20.10;;
5153;SDS011;2595;53.584;10.084;2023-02-15T17:32:23;31.90;;;21.23;;
5153;SDS011;2595;53.584;10.084;2023-02-15T17:35:05;28.80;;;22.20;;
5153;SDS011;2595;53.584;10.084;2023-02-15T17:40:10;31.60;;;21.10;;
5153;SDS011;2595;53.584;10.084;2023-02-15T17:42:44;31.83;;;20.97;;
5153;SDS011;2595;53.584;10.084;2023-02-15T17:45:09;28.50;;;21.73;;
5153;SDS011;2595;53.584;10.084;2023-02-15T17:47:35;30.87;;;22.00;;
5153;SDS011;2595;53.584;10.084;2023-02-15T17:50:02;31.23;;;21.50;;
5153;SDS011;2595;53.584;10.084;2023-02-15T17:52:29;29.53;;;21.53;;
5153;SDS011;2595;53.584;10.084;2023-02-15T17:54:55;29.50;;;21.40;;
5153;SDS011;2595;53.584;10.084;2023-02-15T17:57:39;28.17;;;21.07;;
5153;SDS011;2595;53.584;10.084;2023-02-15T18:00:06;30.60;;;20.67;;
5153;SDS011;2595;53.584;10.084;2023-02-15T18:02:51;29.77;;;20.53;;
5153;SDS011;2595;53.584;10.084;2023-02-15T18:05:35;27.83;;;21.37;;
5153;SDS011;2595;53.584;10.084;2023-02-15T18:08:21;28.73;;;20.97;;